x

Buoy B01 - Western Maine Shelf (44030) Weather Station

9:04pm - Thu 27th Apr 2017 All times are EDT. -4 hours from GMT.

  • Wind
    2mph, 4mph gusts
  • Sea Temp 45°f
  • Air Temp 45°f
  • Sea Pressure 1014.1mb
  • Buoy B01 - Western Maine Shelf
  • Buoy B01 - Western Maine Shelf

More Historic Weather Station data

Upgrade to MSW Pro to gain access to the past 30 days of data for over 8000 Wavebouys and Weather Stations around the globe.

Join Pro

Comparision Forecast

View Surf forecast
   
Thu 04/27 9:04pm  -   -  2 4 mph 1014.1mb 45f 45f
8:04pm 6ft 11s 4 7 mph 1013.1mb 45f 46f
7:04pm 7ft 11s 4 7 mph 1013.3mb 45f 45f
6:04pm 7ft 11s 4
mph
1013.2mb 46f 46f
5:04pm 7ft 11s 7
mph
1013.2mb 45f 46f
4:04pm 8ft 11s 4 7 mph 1013.1mb 46f 46f
3:04pm 7.5ft 11s 9
mph
1013.1mb 45f 46f
2:04pm 6ft 11s 7
mph
1013.1mb 45f 46f
1:04pm 6ft 11s 7
mph
1013.1mb 44f 45f
12:04pm 6ft 11s 2 4 mph 1013.6mb 44f 45f
11:04am 6ft 11s 9 11 mph 1013.1mb 44f 45f
10:04am 6ft 11s 7 9 mph 1013.1mb 44f 45f
9:04am 6.5ft 11s 13 16 mph 1012.8mb 44f 45f
8:04am 6ft 11s 11 13 mph 1012.8mb 44f 45f
7:04am 6ft 8s 7 9 mph 1012.5mb 44f 44f
6:04am 7.5ft 11s 7 9 mph 1011.9mb 44f 45f
5:04am 7.5ft 11s 7 9 mph 1011.5mb 44f 45f
4:04am 7ft 11s 4 7 mph 1011.2mb 43f 45f
3:04am 6.5ft 11s 11 13 mph 1010.8mb 43f 45f
2:04am 7ft 11s 11
mph
1010.8mb 43f 45f
1:04am 7.5ft 8s 11
mph
1010.8mb 43f 45f
12:04am 7ft 8s 7 9 mph 1011.4mb 43f 45f
Wed 04/26 11:04pm 7ft 8s 4 7 mph 1010.7mb 43f 45f
10:04pm 6ft 8s 7 9 mph 1010.9mb 43f 46f
9:04pm 6ft 8s 9
mph
1010.8mb 43f 46f
8:04pm 7ft 6s 11 13 mph 1011.4mb 43f 46f
7:04pm 7ft 8s 11
mph
1011.4mb 43f 46f
6:04pm 7ft 6s 9
mph
1011.4mb 43f 46f
5:04pm 7.5ft 8s 9
mph
1011.3mb 43f 46f
4:04pm 6.5ft 6s 7 9 mph 1011.5mb 43f 47f
3:04pm 7ft 8s 7 9 mph 1012mb 43f 46f
2:04pm 5.5ft 6s 7
mph
1012.2mb 43f 46f
1:04pm 6ft 6s 4 7 mph 1012.6mb 43f 48f
12:04pm 5.5ft 6s 4 7 mph 1012.8mb 43f 48f
11:04am 6ft 8s 9 18 mph 1013.4mb 43f 51f
10:04am 6ft 6s 16 20 mph 1013.9mb 43f 45f
9:04am 6ft 8s 18 22 mph 1014.1mb 43f 45f
8:04am 5ft 6s 18 20 mph 1014.9mb 43f 44f
7:04am 5.5ft 8s 20 22 mph 1014.9mb 43f 44f
6:04am 7ft 8s 20 25 mph 1015.1mb 43f 44f
5:04am 7ft 8s 20 22 mph 1015.8mb 43f 44f
4:04am 6.5ft 6s 18 20 mph 1016.5mb 43f 44f
2:04am 6ft 6s 16 20 mph 1017.5mb 44f 44f
1:04am 6.5ft 6s 20 22 mph 1018.2mb 44f 44f
12:04am 6.5ft 6s 20 25 mph 1019mb 44f 44f
Tue 04/25 11:04pm 6ft 6s 20 25 mph 1020.1mb 44f 43f
10:04pm 6ft 6s 22 25 mph 1021.3mb 44f 43f
9:04pm 6ft 5s 22 25 mph 1022.3mb 44f 43f
8:04pm 5.5ft 5s 20 25 mph 1023.1mb 44f 43f
7:04pm 5ft 5s 20 25 mph 1023.6mb 44f 43f
6:04pm 5ft 5s 20 25 mph 1024.2mb 44f 43f
5:04pm 5ft 5s 22 25 mph 1024.7mb 44f 43f
4:04pm 5ft 5s 20 25 mph 1025.1mb 45f 43f
3:04pm 4.5ft 5s 25 27 mph 1025.9mb 45f 43f
2:04pm 4.5ft 5s 22 27 mph 1026.4mb 45f 44f
1:04pm 4ft 5s 25 27 mph 1026.4mb 45f 43f
12:04pm 3.5ft 4s 20 25 mph 1027.1mb 46f 44f
11:04am 3ft 4s 20 25 mph 1027mb 46f 44f
10:04am 3ft 4s 18 20 mph 1027.2mb 45f 43f
9:04am 2ft 3s 16
mph
1027.3mb 45f 43f
8:04am  -   -  18 22 mph 1026.6mb 44f 43f
7:04am 1.6ft 3s 11 13 mph 1026.4mb 44f 44f
6:04am 1.6ft 4s 13 16 mph 1025.2mb 45f 45f
5:04am 3ft 11s 9 11 mph 1025mb 45f 45f
4:04am 2.5ft 11s 7 11 mph 1024.8mb 46f 46f
3:04am 3ft 11s 4 7 mph 1024.5mb 46f 46f
2:04am 1.6ft 4s 11 13 mph 1023.9mb 46f 46f
1:04am 2.5ft 6s 9 11 mph 1023.7mb 46f 47f
Mon 04/24 11:04pm 2.5ft 8s 13
mph
1023.4mb 47f 46f
10:04pm  -   -  13 16 mph 1023.1mb 47f 46f
9:04pm 3ft 11s 13 16 mph 1022.8mb 47f 46f
8:04pm 2.5ft 11s 13 16 mph 1022mb 47f 47f
7:04pm 2.5ft 11s 9 13 mph 1021.6mb 48f 47f
6:04pm 2.5ft 11s 4 7 mph 1021.1mb 48f 48f
4:04pm 2.5ft 8s 4
mph
1021mb 47f 49f
3:04pm 3ft 11s 9 11 mph 1020.8mb 48f 48f
2:04pm 2.5ft 11s 9 11 mph 1021.1mb 49f 48f
1:04pm 3ft 11s 7
mph
1021.7mb 49f 48f
12:04pm 3ft 11s 4 7 mph 1021.6mb 47f 49f
11:04am 3ft 11s 4 7 mph 1021.5mb 46f 50f
10:04am 3ft 11s 2
mph
1021.1mb 46f 49f
9:04am 2.5ft 6s 2
mph
1021mb 45f 47f
8:04am 3.5ft 8s 2 4 mph 1020.3mb 44f 46f
7:04am 3.5ft 11s 7
mph
1019.4mb 44f 46f
6:04am 3.5ft 11s 7
mph
1018.8mb 44f 45f
5:04am 3.5ft 11s 7 9 mph 1018.3mb 44f 45f
4:04am 4.5ft 11s 11 13 mph 1017.4mb 44f 45f
3:04am 4.5ft 11s 16 18 mph 1017.1mb 44f 46f